sensor_id;sensor_type;location;lat;lon;timestamp;P1;durP1;ratioP1;P2;durP2;ratioP2
8825;SDS011;4449;50.872;4.714;2023-03-26T00:01:38;23.47;;;6.57;;
8825;SDS011;4449;50.872;4.714;2023-03-26T00:04:10;14.80;;;4.30;;
8825;SDS011;4449;50.872;4.714;2023-03-26T00:06:40;15.43;;;4.78;;
8825;SDS011;4449;50.872;4.714;2023-03-26T00:09:09;10.95;;;3.90;;
8825;SDS011;4449;50.872;4.714;2023-03-26T00:11:38;12.00;;;3.95;;
8825;SDS011;4449;50.872;4.714;2023-03-26T00:14:06;12.45;;;3.80;;
8825;SDS011;4449;50.872;4.714;2023-03-26T00:16:38;11.18;;;3.30;;
8825;SDS011;4449;50.872;4.714;2023-03-26T00:19:07;13.05;;;3.10;;
8825;SDS011;4449;50.872;4.714;2023-03-26T00:21:35;9.82;;;3.08;;
8825;SDS011;4449;50.872;4.714;2023-03-26T00:24:06;9.18;;;3.33;;
8825;SDS011;4449;50.872;4.714;2023-03-26T00:26:34;9.80;;;3.08;;
8825;SDS011;4449;50.872;4.714;2023-03-26T00:29:03;7.78;;;2.97;;
8825;SDS011;4449;50.872;4.714;2023-03-26T00:31:32;8.95;;;2.67;;
8825;SDS011;4449;50.872;4.714;2023-03-26T00:34:02;9.40;;;3.23;;
8825;SDS011;4449;50.872;4.714;2023-03-26T00:36:30;8.67;;;2.70;;
8825;SDS011;4449;50.872;4.714;2023-03-26T00:39:00;5.43;;;2.30;;
8825;SDS011;4449;50.872;4.714;2023-03-26T00:41:31;11.53;;;2.40;;
8825;SDS011;4449;50.872;4.714;2023-03-26T00:44:01;9.47;;;2.37;;
8825;SDS011;4449;50.872;4.714;2023-03-26T00:46:29;12.10;;;2.33;;
8825;SDS011;4449;50.872;4.714;2023-03-26T00:48:58;6.95;;;2.25;;
8825;SDS011;4449;50.872;4.714;2023-03-26T00:51:28;6.55;;;2.38;;
8825;SDS011;4449;50.872;4.714;2023-03-26T00:53:56;8.90;;;2.70;;
8825;SDS011;4449;50.872;4.714;2023-03-26T00:56:24;11.60;;;2.97;;
8825;SDS011;4449;50.872;4.714;2023-03-26T00:58:53;12.82;;;3.50;;
8825;SDS011;4449;50.872;4.714;2023-03-26T01:01:23;11.90;;;2.80;;
8825;SDS011;4449;50.872;4.714;2023-03-26T01:03:52;7.68;;;2.80;;
8825;SDS011;4449;50.872;4.714;2023-03-26T01:06:23;10.57;;;3.53;;
8825;SDS011;4449;50.872;4.714;2023-03-26T01:08:53;9.80;;;2.73;;
8825;SDS011;4449;50.872;4.714;2023-03-26T01:11:25;9.23;;;2.93;;
8825;SDS011;4449;50.872;4.714;2023-03-26T01:13:55;8.07;;;2.80;;
8825;SDS011;4449;50.872;4.714;2023-03-26T01:16:25;11.93;;;3.30;;
8825;SDS011;4449;50.872;4.714;2023-03-26T01:18:53;7.07;;;3.00;;
8825;SDS011;4449;50.872;4.714;2023-03-26T01:21:23;11.82;;;3.42;;
8825;SDS011;4449;50.872;4.714;2023-03-26T01:23:57;13.35;;;4.07;;
8825;SDS011;4449;50.872;4.714;2023-03-26T01:26:31;10.83;;;2.90;;
8825;SDS011;4449;50.872;4.714;2023-03-26T01:29:02;21.73;;;3.80;;
8825;SDS011;4449;50.872;4.714;2023-03-26T01:31:33;10.88;;;3.45;;
8825;SDS011;4449;50.872;4.714;2023-03-26T01:34:05;12.43;;;3.70;;
8825;SDS011;4449;50.872;4.714;2023-03-26T01:36:38;9.95;;;3.97;;
8825;SDS011;4449;50.872;4.714;2023-03-26T01:39:11;17.13;;;4.13;;
8825;SDS011;4449;50.872;4.714;2023-03-26T01:41:43;8.37;;;3.03;;
8825;SDS011;4449;50.872;4.714;2023-03-26T01:44:13;13.17;;;3.50;;
8825;SDS011;4449;50.872;4.714;2023-03-26T01:46:43;13.60;;;3.53;;
8825;SDS011;4449;50.872;4.714;2023-03-26T01:49:11;11.77;;;3.23;;
8825;SDS011;4449;50.872;4.714;2023-03-26T01:51:39;20.80;;;4.07;;
8825;SDS011;4449;50.872;4.714;2023-03-26T01:54:08;14.40;;;3.97;;
8825;SDS011;4449;50.872;4.714;2023-03-26T01:56:39;9.57;;;3.90;;
8825;SDS011;4449;50.872;4.714;2023-03-26T01:59:12;10.33;;;3.20;;
8825;SDS011;4449;50.872;4.714;2023-03-26T02:01:44;11.17;;;3.80;;
8825;SDS011;4449;50.872;4.714;2023-03-26T02:04:21;14.93;;;5.07;;
8825;SDS011;4449;50.872;4.714;2023-03-26T02:06:52;17.92;;;4.82;;
8825;SDS011;4449;50.872;4.714;2023-03-26T02:09:24;12.07;;;3.78;;
8825;SDS011;4449;50.872;4.714;2023-03-26T02:11:54;8.93;;;3.17;;
8825;SDS011;4449;50.872;4.714;2023-03-26T02:14:22;9.40;;;2.90;;
8825;SDS011;4449;50.872;4.714;2023-03-26T02:16:50;13.50;;;3.50;;
8825;SDS011;4449;50.872;4.714;2023-03-26T02:19:20;4.30;;;2.77;;
8825;SDS011;4449;50.872;4.714;2023-03-26T02:21:48;16.90;;;3.07;;
8825;SDS011;4449;50.872;4.714;2023-03-26T02:24:17;18.53;;;4.83;;
8825;SDS011;4449;50.872;4.714;2023-03-26T02:26:47;11.60;;;3.13;;
8825;SDS011;4449;50.872;4.714;2023-03-26T02:29:16;15.07;;;3.73;;
8825;SDS011;4449;50.872;4.714;2023-03-26T02:31:44;7.43;;;3.00;;
8825;SDS011;4449;50.872;4.714;2023-03-26T02:34:12;12.37;;;2.93;;
8825;SDS011;4449;50.872;4.714;2023-03-26T02:36:40;12.20;;;3.43;;
8825;SDS011;4449;50.872;4.714;2023-03-26T02:39:08;8.00;;;2.97;;
8825;SDS011;4449;50.872;4.714;2023-03-26T02:41:36;8.53;;;2.80;;
8825;SDS011;4449;50.872;4.714;2023-03-26T02:44:04;8.03;;;3.33;;
8825;SDS011;4449;50.872;4.714;2023-03-26T02:46:33;11.73;;;2.70;;
8825;SDS011;4449;50.872;4.714;2023-03-26T02:49:01;7.27;;;2.83;;
8825;SDS011;4449;50.872;4.714;2023-03-26T02:51:29;6.60;;;2.87;;
8825;SDS011;4449;50.872;4.714;2023-03-26T02:54:00;6.57;;;2.57;;
8825;SDS011;4449;50.872;4.714;2023-03-26T02:56:28;9.20;;;2.83;;
8825;SDS011;4449;50.872;4.714;2023-03-26T02:58:55;14.37;;;2.70;;
8825;SDS011;4449;50.872;4.714;2023-03-26T03:01:23;13.03;;;2.47;;
8825;SDS011;4449;50.872;4.714;2023-03-26T03:03:52;11.47;;;3.43;;
8825;SDS011;4449;50.872;4.714;2023-03-26T03:06:20;9.60;;;3.03;;
8825;SDS011;4449;50.872;4.714;2023-03-26T03:08:50;13.13;;;2.77;;
8825;SDS011;4449;50.872;4.714;2023-03-26T03:11:19;12.27;;;3.17;;
8825;SDS011;4449;50.872;4.714;2023-03-26T03:13:49;7.37;;;2.63;;
8825;SDS011;4449;50.872;4.714;2023-03-26T03:16:17;10.53;;;3.40;;
8825;SDS011;4449;50.872;4.714;2023-03-26T03:18:45;8.53;;;3.37;;
8825;SDS011;4449;50.872;4.714;2023-03-26T03:21:20;8.17;;;2.97;;
8825;SDS011;4449;50.872;4.714;2023-03-26T03:23:47;5.27;;;2.47;;
8825;SDS011;4449;50.872;4.714;2023-03-26T03:26:16;9.07;;;2.50;;
8825;SDS011;4449;50.872;4.714;2023-03-26T03:28:46;18.80;;;3.53;;
8825;SDS011;4449;50.872;4.714;2023-03-26T03:31:14;11.00;;;3.07;;
8825;SDS011;4449;50.872;4.714;2023-03-26T03:33:41;9.67;;;2.43;;
8825;SDS011;4449;50.872;4.714;2023-03-26T03:36:10;9.80;;;3.10;;
8825;SDS011;4449;50.872;4.714;2023-03-26T03:38:40;10.90;;;2.87;;
8825;SDS011;4449;50.872;4.714;2023-03-26T03:41:08;11.43;;;2.40;;
8825;SDS011;4449;50.872;4.714;2023-03-26T03:43:36;11.10;;;2.83;;
8825;SDS011;4449;50.872;4.714;2023-03-26T03:46:04;10.23;;;2.77;;
8825;SDS011;4449;50.872;4.714;2023-03-26T03:48:31;10.40;;;2.37;;
8825;SDS011;4449;50.872;4.714;2023-03-26T03:51:03;8.53;;;2.63;;
8825;SDS011;4449;50.872;4.714;2023-03-26T03:53:31;8.67;;;2.50;;
8825;SDS011;4449;50.872;4.714;2023-03-26T03:56:02;10.20;;;3.13;;
8825;SDS011;4449;50.872;4.714;2023-03-26T03:58:34;5.77;;;2.43;;
8825;SDS011;4449;50.872;4.714;2023-03-26T04:01:02;9.00;;;2.77;;
8825;SDS011;4449;50.872;4.714;2023-03-26T04:03:29;9.60;;;3.00;;
8825;SDS011;4449;50.872;4.714;2023-03-26T04:06:02;15.40;;;3.35;;
8825;SDS011;4449;50.872;4.714;2023-03-26T04:08:31;9.37;;;3.30;;
8825;SDS011;4449;50.872;4.714;2023-03-26T04:10:59;12.85;;;3.55;;
8825;SDS011;4449;50.872;4.714;2023-03-26T04:13:28;12.38;;;4.10;;
8825;SDS011;4449;50.872;4.714;2023-03-26T04:15:55;11.95;;;3.53;;
8825;SDS011;4449;50.872;4.714;2023-03-26T04:18:23;11.70;;;4.20;;
8825;SDS011;4449;50.872;4.714;2023-03-26T04:20:52;9.93;;;3.30;;
8825;SDS011;4449;50.872;4.714;2023-03-26T04:23:20;11.65;;;4.13;;
8825;SDS011;4449;50.872;4.714;2023-03-26T04:25:48;13.95;;;3.42;;
8825;SDS011;4449;50.872;4.714;2023-03-26T04:28:21;6.63;;;3.03;;
8825;SDS011;4449;50.872;4.714;2023-03-26T04:30:54;10.93;;;3.27;;
8825;SDS011;4449;50.872;4.714;2023-03-26T04:33:25;9.83;;;3.33;;
8825;SDS011;4449;50.872;4.714;2023-03-26T04:35:53;13.80;;;3.33;;
8825;SDS011;4449;50.872;4.714;2023-03-26T04:38:26;8.30;;;3.25;;
8825;SDS011;4449;50.872;4.714;2023-03-26T04:40:54;12.63;;;3.83;;
8825;SDS011;4449;50.872;4.714;2023-03-26T04:43:24;8.73;;;3.50;;
8825;SDS011;4449;50.872;4.714;2023-03-26T04:45:53;7.65;;;3.50;;
8825;SDS011;4449;50.872;4.714;2023-03-26T04:48:21;10.70;;;2.90;;
8825;SDS011;4449;50.872;4.714;2023-03-26T04:50:49;10.52;;;3.00;;
8825;SDS011;4449;50.872;4.714;2023-03-26T04:53:17;11.75;;;3.28;;
8825;SDS011;4449;50.872;4.714;2023-03-26T04:55:48;11.90;;;3.45;;
8825;SDS011;4449;50.872;4.714;2023-03-26T04:58:17;13.45;;;3.50;;
8825;SDS011;4449;50.872;4.714;2023-03-26T05:00:45;11.45;;;3.53;;
8825;SDS011;4449;50.872;4.714;2023-03-26T05:03:15;11.82;;;3.92;;
8825;SDS011;4449;50.872;4.714;2023-03-26T05:05:45;10.57;;;3.90;;
8825;SDS011;4449;50.872;4.714;2023-03-26T05:08:14;14.90;;;4.20;;
8825;SDS011;4449;50.872;4.714;2023-03-26T05:10:41;8.60;;;3.10;;
8825;SDS011;4449;50.872;4.714;2023-03-26T05:13:09;8.93;;;3.15;;
8825;SDS011;4449;50.872;4.714;2023-03-26T05:15:37;8.40;;;3.30;;
8825;SDS011;4449;50.872;4.714;2023-03-26T05:18:05;8.95;;;3.30;;
8825;SDS011;4449;50.872;4.714;2023-03-26T05:20:35;10.57;;;4.18;;
8825;SDS011;4449;50.872;4.714;2023-03-26T05:23:03;8.75;;;3.10;;
8825;SDS011;4449;50.872;4.714;2023-03-26T05:25:31;12.65;;;3.38;;
8825;SDS011;4449;50.872;4.714;2023-03-26T05:27:59;8.73;;;3.08;;
8825;SDS011;4449;50.872;4.714;2023-03-26T05:30:27;9.77;;;2.97;;
8825;SDS011;4449;50.872;4.714;2023-03-26T05:32:55;9.50;;;2.90;;
8825;SDS011;4449;50.872;4.714;2023-03-26T05:35:23;8.43;;;2.67;;
8825;SDS011;4449;50.872;4.714;2023-03-26T05:37:52;11.95;;;2.97;;
8825;SDS011;4449;50.872;4.714;2023-03-26T05:40:20;7.03;;;2.50;;
8825;SDS011;4449;50.872;4.714;2023-03-26T05:42:48;9.45;;;2.90;;
8825;SDS011;4449;50.872;4.714;2023-03-26T05:45:16;6.43;;;2.35;;
8825;SDS011;4449;50.872;4.714;2023-03-26T05:47:44;6.50;;;2.25;;
8825;SDS011;4449;50.872;4.714;2023-03-26T05:50:14;6.78;;;2.10;;
8825;SDS011;4449;50.872;4.714;2023-03-26T05:52:41;6.10;;;2.38;;
8825;SDS011;4449;50.872;4.714;2023-03-26T05:55:11;9.45;;;2.13;;
8825;SDS011;4449;50.872;4.714;2023-03-26T05:57:39;6.60;;;2.47;;
8825;SDS011;4449;50.872;4.714;2023-03-26T06:00:07;8.50;;;2.90;;
8825;SDS011;4449;50.872;4.714;2023-03-26T06:02:36;5.03;;;2.53;;
8825;SDS011;4449;50.872;4.714;2023-03-26T06:05:06;6.68;;;2.83;;
8825;SDS011;4449;50.872;4.714;2023-03-26T06:07:35;9.25;;;2.78;;
8825;SDS011;4449;50.872;4.714;2023-03-26T06:10:03;6.68;;;2.45;;
8825;SDS011;4449;50.872;4.714;2023-03-26T06:12:32;9.00;;;2.50;;
8825;SDS011;4449;50.872;4.714;2023-03-26T06:15:01;7.65;;;2.30;;
8825;SDS011;4449;50.872;4.714;2023-03-26T06:17:28;4.85;;;2.40;;
8825;SDS011;4449;50.872;4.714;2023-03-26T06:19:56;6.30;;;2.40;;
8825;SDS011;4449;50.872;4.714;2023-03-26T06:22:24;7.95;;;2.30;;
8825;SDS011;4449;50.872;4.714;2023-03-26T06:24:51;7.20;;;2.38;;
8825;SDS011;4449;50.872;4.714;2023-03-26T06:27:19;8.85;;;2.80;;
8825;SDS011;4449;50.872;4.714;2023-03-26T06:29:48;6.43;;;2.50;;
8825;SDS011;4449;50.872;4.714;2023-03-26T06:32:16;7.85;;;2.38;;
8825;SDS011;4449;50.872;4.714;2023-03-26T06:34:44;6.90;;;2.10;;
8825;SDS011;4449;50.872;4.714;2023-03-26T06:37:12;4.65;;;2.25;;
8825;SDS011;4449;50.872;4.714;2023-03-26T06:39:39;7.53;;;2.60;;
8825;SDS011;4449;50.872;4.714;2023-03-26T06:42:07;7.80;;;2.92;;
8825;SDS011;4449;50.872;4.714;2023-03-26T06:44:35;5.97;;;2.65;;
8825;SDS011;4449;50.872;4.714;2023-03-26T06:47:04;6.35;;;2.33;;
8825;SDS011;4449;50.872;4.714;2023-03-26T06:49:32;5.53;;;2.15;;
8825;SDS011;4449;50.872;4.714;2023-03-26T06:52:02;5.38;;;2.33;;
8825;SDS011;4449;50.872;4.714;2023-03-26T06:54:30;5.95;;;2.45;;
8825;SDS011;4449;50.872;4.714;2023-03-26T06:56:58;7.38;;;2.67;;
8825;SDS011;4449;50.872;4.714;2023-03-26T06:59:25;4.53;;;2.27;;
8825;SDS011;4449;50.872;4.714;2023-03-26T07:01:53;8.13;;;2.72;;
8825;SDS011;4449;50.872;4.714;2023-03-26T07:04:22;7.82;;;2.55;;
8825;SDS011;4449;50.872;4.714;2023-03-26T07:06:50;8.60;;;3.00;;
8825;SDS011;4449;50.872;4.714;2023-03-26T07:09:18;7.45;;;2.88;;
8825;SDS011;4449;50.872;4.714;2023-03-26T07:11:45;6.35;;;2.10;;
8825;SDS011;4449;50.872;4.714;2023-03-26T07:14:13;6.75;;;2.45;;
8825;SDS011;4449;50.872;4.714;2023-03-26T07:16:41;6.85;;;2.78;;
8825;SDS011;4449;50.872;4.714;2023-03-26T07:19:08;6.18;;;2.85;;
8825;SDS011;4449;50.872;4.714;2023-03-26T07:21:38;3.08;;;1.98;;
8825;SDS011;4449;50.872;4.714;2023-03-26T07:24:08;3.80;;;1.80;;
8825;SDS011;4449;50.872;4.714;2023-03-26T07:26:37;4.10;;;1.80;;
8825;SDS011;4449;50.872;4.714;2023-03-26T07:29:11;4.90;;;1.80;;
8825;SDS011;4449;50.872;4.714;2023-03-26T07:31:40;5.28;;;2.05;;
8825;SDS011;4449;50.872;4.714;2023-03-26T07:34:14;6.70;;;2.10;;
8825;SDS011;4449;50.872;4.714;2023-03-26T07:36:47;3.33;;;1.58;;
8825;SDS011;4449;50.872;4.714;2023-03-26T07:39:21;3.78;;;1.60;;
8825;SDS011;4449;50.872;4.714;2023-03-26T07:41:54;5.05;;;1.73;;
8825;SDS011;4449;50.872;4.714;2023-03-26T07:44:30;4.28;;;1.65;;
8825;SDS011;4449;50.872;4.714;2023-03-26T07:46:59;1.77;;;1.63;;
8825;SDS011;4449;50.872;4.714;2023-03-26T07:49:29;4.07;;;1.87;;
8825;SDS011;4449;50.872;4.714;2023-03-26T07:51:58;2.75;;;1.80;;
8825;SDS011;4449;50.872;4.714;2023-03-26T07:54:26;3.43;;;1.50;;
8825;SDS011;4449;50.872;4.714;2023-03-26T07:56:55;5.60;;;1.83;;
8825;SDS011;4449;50.872;4.714;2023-03-26T07:59:25;3.00;;;1.70;;
8825;SDS011;4449;50.872;4.714;2023-03-26T08:02:18;4.40;;;1.40;;
8825;SDS011;4449;50.872;4.714;2023-03-26T08:04:57;2.67;;;1.48;;
8825;SDS011;4449;50.872;4.714;2023-03-26T08:07:31;4.72;;;1.67;;
8825;SDS011;4449;50.872;4.714;2023-03-26T08:10:02;2.60;;;1.50;;
8825;SDS011;4449;50.872;4.714;2023-03-26T08:12:36;3.13;;;1.60;;
8825;SDS011;4449;50.872;4.714;2023-03-26T08:15:07;3.20;;;1.63;;
8825;SDS011;4449;50.872;4.714;2023-03-26T08:17:38;2.95;;;1.55;;
8825;SDS011;4449;50.872;4.714;2023-03-26T08:20:10;3.88;;;1.88;;
8825;SDS011;4449;50.872;4.714;2023-03-26T08:22:43;2.30;;;1.63;;
8825;SDS011;4449;50.872;4.714;2023-03-26T08:28:09;2.63;;;1.70;;
8825;SDS011;4449;50.872;4.714;2023-03-26T08:30:39;2.80;;;1.70;;
8825;SDS011;4449;50.872;4.714;2023-03-26T08:33:10;2.30;;;2.00;;
8825;SDS011;4449;50.872;4.714;2023-03-26T08:35:38;1.95;;;1.60;;
8825;SDS011;4449;50.872;4.714;2023-03-26T08:38:08;3.28;;;1.85;;
8825;SDS011;4449;50.872;4.714;2023-03-26T08:43:36;2.50;;;1.70;;
8825;SDS011;4449;50.872;4.714;2023-03-26T08:46:18;3.20;;;1.63;;
8825;SDS011;4449;50.872;4.714;2023-03-26T08:48:58;2.80;;;1.80;;
8825;SDS011;4449;50.872;4.714;2023-03-26T08:51:34;4.20;;;1.70;;
8825;SDS011;4449;50.872;4.714;2023-03-26T08:54:14;5.25;;;2.10;;
8825;SDS011;4449;50.872;4.714;2023-03-26T08:56:51;4.95;;;1.88;;
8825;SDS011;4449;50.872;4.714;2023-03-26T08:59:33;3.88;;;1.98;;
8825;SDS011;4449;50.872;4.714;2023-03-26T09:02:09;4.53;;;1.90;;
8825;SDS011;4449;50.872;4.714;2023-03-26T09:04:59;3.67;;;1.92;;
8825;SDS011;4449;50.872;4.714;2023-03-26T09:07:40;5.38;;;2.00;;
8825;SDS011;4449;50.872;4.714;2023-03-26T09:13:09;3.55;;;1.73;;
8825;SDS011;4449;50.872;4.714;2023-03-26T09:15:48;3.90;;;1.60;;
8825;SDS011;4449;50.872;4.714;2023-03-26T09:21:26;2.10;;;1.67;;
8825;SDS011;4449;50.872;4.714;2023-03-26T09:24:16;2.72;;;1.70;;
8825;SDS011;4449;50.872;4.714;2023-03-26T09:26:54;3.60;;;1.70;;
8825;SDS011;4449;50.872;4.714;2023-03-26T09:35:29;3.80;;;2.10;;
8825;SDS011;4449;50.872;4.714;2023-03-26T09:38:00;3.03;;;2.00;;
8825;SDS011;4449;50.872;4.714;2023-03-26T09:40:36;3.95;;;1.70;;
8825;SDS011;4449;50.872;4.714;2023-03-26T10:41:10;2.67;;;1.50;;
8825;SDS011;4449;50.872;4.714;2023-03-26T10:43:50;3.43;;;2.20;;
8825;SDS011;4449;50.872;4.714;2023-03-26T10:46:33;1.87;;;1.67;;
8825;SDS011;4449;50.872;4.714;2023-03-26T10:49:13;4.43;;;1.90;;
8825;SDS011;4449;50.872;4.714;2023-03-26T10:51:46;1.80;;;1.70;;
8825;SDS011;4449;50.872;4.714;2023-03-26T10:54:23;3.00;;;2.10;;
8825;SDS011;4449;50.872;4.714;2023-03-26T10:56:54;3.83;;;1.98;;
8825;SDS011;4449;50.872;4.714;2023-03-26T10:59:23;2.78;;;1.67;;
8825;SDS011;4449;50.872;4.714;2023-03-26T11:01:55;2.22;;;1.85;;
8825;SDS011;4449;50.872;4.714;2023-03-26T11:04:26;3.58;;;2.10;;
8825;SDS011;4449;50.872;4.714;2023-03-26T11:07:00;2.03;;;1.80;;
8825;SDS011;4449;50.872;4.714;2023-03-26T11:09:32;4.32;;;1.80;;
8825;SDS011;4449;50.872;4.714;2023-03-26T11:12:05;4.18;;;1.70;;
8825;SDS011;4449;50.872;4.714;2023-03-26T11:14:39;2.83;;;1.70;;
8825;SDS011;4449;50.872;4.714;2023-03-26T11:17:10;2.30;;;1.90;;
8825;SDS011;4449;50.872;4.714;2023-03-26T11:19:42;1.98;;;1.88;;
8825;SDS011;4449;50.872;4.714;2023-03-26T11:22:14;2.60;;;2.20;;
8825;SDS011;4449;50.872;4.714;2023-03-26T11:27:37;2.20;;;2.03;;
8825;SDS011;4449;50.872;4.714;2023-03-26T11:30:10;2.07;;;1.90;;
8825;SDS011;4449;50.872;4.714;2023-03-26T11:32:41;1.70;;;1.60;;
8825;SDS011;4449;50.872;4.714;2023-03-26T11:35:14;2.55;;;2.28;;
8825;SDS011;4449;50.872;4.714;2023-03-26T11:37:45;2.90;;;2.70;;
8825;SDS011;4449;50.872;4.714;2023-03-26T11:40:15;2.83;;;2.63;;
8825;SDS011;4449;50.872;4.714;2023-03-26T11:42:46;2.10;;;1.90;;
8825;SDS011;4449;50.872;4.714;2023-03-26T11:45:17;2.97;;;2.70;;
8825;SDS011;4449;50.872;4.714;2023-03-26T11:47:46;1.83;;;1.83;;
8825;SDS011;4449;50.872;4.714;2023-03-26T11:50:15;4.37;;;2.30;;
8825;SDS011;4449;50.872;4.714;2023-03-26T11:52:44;1.90;;;1.80;;
8825;SDS011;4449;50.872;4.714;2023-03-26T16:26:14;6.47;;;4.70;;
8825;SDS011;4449;50.872;4.714;2023-03-26T16:29:00;8.23;;;5.00;;
8825;SDS011;4449;50.872;4.714;2023-03-26T16:31:32;10.98;;;5.50;;
8825;SDS011;4449;50.872;4.714;2023-03-26T16:34:17;8.82;;;5.30;;
8825;SDS011;4449;50.872;4.714;2023-03-26T16:36:47;9.07;;;5.10;;
8825;SDS011;4449;50.872;4.714;2023-03-26T16:39:17;11.23;;;5.30;;
8825;SDS011;4449;50.872;4.714;2023-03-26T16:41:54;10.45;;;5.75;;
8825;SDS011;4449;50.872;4.714;2023-03-26T16:44:25;12.93;;;5.53;;
8825;SDS011;4449;50.872;4.714;2023-03-26T16:46:55;10.70;;;5.20;;
8825;SDS011;4449;50.872;4.714;2023-03-26T16:49:34;11.98;;;4.72;;
8825;SDS011;4449;50.872;4.714;2023-03-26T16:52:06;9.10;;;4.57;;
8825;SDS011;4449;50.872;4.714;2023-03-26T16:54:44;10.67;;;5.47;;
8825;SDS011;4449;50.872;4.714;2023-03-26T17:00:15;11.30;;;4.53;;
8825;SDS011;4449;50.872;4.714;2023-03-26T17:02:51;13.23;;;4.53;;
8825;SDS011;4449;50.872;4.714;2023-03-26T17:05:29;10.13;;;4.13;;
8825;SDS011;4449;50.872;4.714;2023-03-26T17:08:00;9.83;;;3.97;;
8825;SDS011;4449;50.872;4.714;2023-03-26T17:10:32;15.93;;;4.03;;
8825;SDS011;4449;50.872;4.714;2023-03-26T17:13:03;9.90;;;3.77;;
8825;SDS011;4449;50.872;4.714;2023-03-26T17:15:35;11.73;;;3.83;;
8825;SDS011;4449;50.872;4.714;2023-03-26T17:18:18;9.25;;;4.47;;
8825;SDS011;4449;50.872;4.714;2023-03-26T17:20:50;14.63;;;6.35;;
8825;SDS011;4449;50.872;4.714;2023-03-26T17:23:29;9.77;;;4.50;;
8825;SDS011;4449;50.872;4.714;2023-03-26T17:26:01;11.80;;;4.78;;
8825;SDS011;4449;50.872;4.714;2023-03-26T17:28:32;12.13;;;4.30;;
8825;SDS011;4449;50.872;4.714;2023-03-26T17:31:10;13.23;;;4.20;;
8825;SDS011;4449;50.872;4.714;2023-03-26T17:33:40;14.40;;;4.78;;
8825;SDS011;4449;50.872;4.714;2023-03-26T17:36:19;11.25;;;4.93;;
8825;SDS011;4449;50.872;4.714;2023-03-26T17:39:03;13.03;;;4.80;;
8825;SDS011;4449;50.872;4.714;2023-03-26T17:44:28;12.57;;;3.80;;
8825;SDS011;4449;50.872;4.714;2023-03-26T17:47:04;9.05;;;4.43;;
8825;SDS011;4449;50.872;4.714;2023-03-26T17:49:32;12.55;;;4.72;;
8825;SDS011;4449;50.872;4.714;2023-03-26T17:52:02;12.70;;;4.20;;
8825;SDS011;4449;50.872;4.714;2023-03-26T17:54:31;9.90;;;4.05;;
8825;SDS011;4449;50.872;4.714;2023-03-26T17:57:01;12.02;;;4.13;;
8825;SDS011;4449;50.872;4.714;2023-03-26T17:59:30;10.40;;;3.50;;
8825;SDS011;4449;50.872;4.714;2023-03-26T18:01:58;6.82;;;3.47;;
8825;SDS011;4449;50.872;4.714;2023-03-26T18:04:30;12.00;;;3.35;;
8825;SDS011;4449;50.872;4.714;2023-03-26T18:07:04;7.10;;;3.25;;
8825;SDS011;4449;50.872;4.714;2023-03-26T18:09:42;5.78;;;2.50;;
8825;SDS011;4449;50.872;4.714;2023-03-26T18:12:19;6.97;;;3.13;;
8825;SDS011;4449;50.872;4.714;2023-03-26T18:14:57;7.78;;;2.85;;
8825;SDS011;4449;50.872;4.714;2023-03-26T18:17:29;7.35;;;2.95;;
8825;SDS011;4449;50.872;4.714;2023-03-26T18:20:03;6.80;;;2.90;;
8825;SDS011;4449;50.872;4.714;2023-03-26T18:22:34;10.80;;;2.90;;
8825;SDS011;4449;50.872;4.714;2023-03-26T18:25:02;6.40;;;2.40;;
8825;SDS011;4449;50.872;4.714;2023-03-26T18:27:32;4.45;;;2.30;;
8825;SDS011;4449;50.872;4.714;2023-03-26T18:30:12;6.15;;;2.60;;
8825;SDS011;4449;50.872;4.714;2023-03-26T18:32:45;4.10;;;1.73;;
8825;SDS011;4449;50.872;4.714;2023-03-26T18:35:17;7.57;;;2.40;;
8825;SDS011;4449;50.872;4.714;2023-03-26T18:37:45;6.30;;;2.20;;
8825;SDS011;4449;50.872;4.714;2023-03-26T18:40:14;5.80;;;2.30;;
8825;SDS011;4449;50.872;4.714;2023-03-26T18:42:44;7.67;;;2.40;;
8825;SDS011;4449;50.872;4.714;2023-03-26T18:45:15;4.07;;;2.30;;
8825;SDS011;4449;50.872;4.714;2023-03-26T18:47:46;3.57;;;2.00;;
8825;SDS011;4449;50.872;4.714;2023-03-26T18:50:17;4.73;;;1.77;;
8825;SDS011;4449;50.872;4.714;2023-03-26T18:52:48;5.17;;;2.23;;
8825;SDS011;4449;50.872;4.714;2023-03-26T18:55:16;7.80;;;3.03;;
8825;SDS011;4449;50.872;4.714;2023-03-26T18:57:44;10.73;;;2.40;;
8825;SDS011;4449;50.872;4.714;2023-03-26T19:00:17;6.90;;;2.60;;
8825;SDS011;4449;50.872;4.714;2023-03-26T19:02:46;5.90;;;2.10;;
8825;SDS011;4449;50.872;4.714;2023-03-26T19:05:17;5.87;;;3.07;;
8825;SDS011;4449;50.872;4.714;2023-03-26T19:07:46;3.07;;;1.70;;
8825;SDS011;4449;50.872;4.714;2023-03-26T19:10:14;8.83;;;2.27;;
8825;SDS011;4449;50.872;4.714;2023-03-26T19:12:45;3.83;;;1.70;;
8825;SDS011;4449;50.872;4.714;2023-03-26T19:15:20;4.57;;;1.80;;
8825;SDS011;4449;50.872;4.714;2023-03-26T19:17:50;9.03;;;2.40;;
8825;SDS011;4449;50.872;4.714;2023-03-26T19:20:22;9.20;;;2.00;;
8825;SDS011;4449;50.872;4.714;2023-03-26T19:22:51;11.27;;;2.30;;
8825;SDS011;4449;50.872;4.714;2023-03-26T19:25:20;3.00;;;2.00;;
8825;SDS011;4449;50.872;4.714;2023-03-26T19:27:48;9.07;;;2.00;;
8825;SDS011;4449;50.872;4.714;2023-03-26T19:30:17;6.93;;;1.97;;
8825;SDS011;4449;50.872;4.714;2023-03-26T19:32:52;2.43;;;2.03;;
8825;SDS011;4449;50.872;4.714;2023-03-26T19:35:22;3.97;;;2.00;;
8825;SDS011;4449;50.872;4.714;2023-03-26T19:37:51;4.93;;;2.10;;
8825;SDS011;4449;50.872;4.714;2023-03-26T19:40:23;6.50;;;2.10;;
8825;SDS011;4449;50.872;4.714;2023-03-26T19:42:55;7.43;;;2.23;;
8825;SDS011;4449;50.872;4.714;2023-03-26T19:45:23;8.80;;;2.53;;
8825;SDS011;4449;50.872;4.714;2023-03-26T19:47:51;6.67;;;2.20;;
8825;SDS011;4449;50.872;4.714;2023-03-26T19:50:23;4.70;;;1.80;;
8825;SDS011;4449;50.872;4.714;2023-03-26T19:53:10;4.57;;;2.07;;
8825;SDS011;4449;50.872;4.714;2023-03-26T19:55:40;6.43;;;2.10;;
8825;SDS011;4449;50.872;4.714;2023-03-26T19:58:09;5.03;;;1.40;;
8825;SDS011;4449;50.872;4.714;2023-03-26T20:00:37;6.97;;;2.47;;
8825;SDS011;4449;50.872;4.714;2023-03-26T20:03:06;3.27;;;2.73;;
8825;SDS011;4449;50.872;4.714;2023-03-26T20:05:35;9.67;;;1.97;;
8825;SDS011;4449;50.872;4.714;2023-03-26T20:08:08;2.57;;;2.33;;
8825;SDS011;4449;50.872;4.714;2023-03-26T20:27:51;5.63;;;2.30;;
8825;SDS011;4449;50.872;4.714;2023-03-26T20:30:18;4.00;;;1.80;;
8825;SDS011;4449;50.872;4.714;2023-03-26T20:32:46;5.90;;;1.93;;
8825;SDS011;4449;50.872;4.714;2023-03-26T20:35:15;2.50;;;1.67;;
8825;SDS011;4449;50.872;4.714;2023-03-26T20:37:43;4.27;;;1.70;;
8825;SDS011;4449;50.872;4.714;2023-03-26T20:40:11;5.07;;;2.30;;
8825;SDS011;4449;50.872;4.714;2023-03-26T20:42:40;3.50;;;1.70;;
8825;SDS011;4449;50.872;4.714;2023-03-26T20:45:12;7.85;;;2.33;;
8825;SDS011;4449;50.872;4.714;2023-03-26T20:47:42;5.07;;;2.13;;
8825;SDS011;4449;50.872;4.714;2023-03-26T20:50:10;8.70;;;2.50;;
8825;SDS011;4449;50.872;4.714;2023-03-26T20:52:40;6.15;;;2.10;;
8825;SDS011;4449;50.872;4.714;2023-03-26T20:55:09;6.10;;;2.17;;
8825;SDS011;4449;50.872;4.714;2023-03-26T20:57:38;5.77;;;1.90;;
8825;SDS011;4449;50.872;4.714;2023-03-26T21:00:08;4.63;;;1.93;;
8825;SDS011;4449;50.872;4.714;2023-03-26T21:02:42;5.93;;;2.13;;
8825;SDS011;4449;50.872;4.714;2023-03-26T21:05:10;8.30;;;2.33;;
8825;SDS011;4449;50.872;4.714;2023-03-26T21:07:40;5.13;;;1.90;;
8825;SDS011;4449;50.872;4.714;2023-03-26T21:10:09;2.67;;;1.60;;
8825;SDS011;4449;50.872;4.714;2023-03-26T21:12:39;5.73;;;2.00;;
8825;SDS011;4449;50.872;4.714;2023-03-26T21:15:08;3.87;;;2.00;;
8825;SDS011;4449;50.872;4.714;2023-03-26T21:17:38;4.40;;;1.73;;
8825;SDS011;4449;50.872;4.714;2023-03-26T21:20:08;5.77;;;1.70;;
8825;SDS011;4449;50.872;4.714;2023-03-26T21:22:39;5.37;;;2.03;;
8825;SDS011;4449;50.872;4.714;2023-03-26T21:25:14;4.03;;;2.17;;
8825;SDS011;4449;50.872;4.714;2023-03-26T21:27:49;8.37;;;1.97;;
8825;SDS011;4449;50.872;4.714;2023-03-26T21:30:18;5.27;;;1.90;;
8825;SDS011;4449;50.872;4.714;2023-03-26T21:32:46;5.17;;;2.07;;
8825;SDS011;4449;50.872;4.714;2023-03-26T21:35:16;3.80;;;1.97;;
8825;SDS011;4449;50.872;4.714;2023-03-26T21:37:44;8.50;;;2.80;;
8825;SDS011;4449;50.872;4.714;2023-03-26T21:40:13;5.87;;;2.00;;
8825;SDS011;4449;50.872;4.714;2023-03-26T21:42:42;8.97;;;2.40;;
8825;SDS011;4449;50.872;4.714;2023-03-26T21:45:11;7.20;;;2.03;;
8825;SDS011;4449;50.872;4.714;2023-03-26T21:47:39;6.73;;;2.00;;